Overview Statistics Trail Chart Weather Telemetry Raw packets
 

This is the latest recevied weather packets stored in our database for station/object HS2LXA-WX. If no packets are shown the sender has not sent any weather packets the latest 10 day(s).

<< 1 2 3 4 >>
Time Temp. Humidity Pressure Rain* Wind** Luminosity Snow
1788682782 32.22° C 83% 1008.6 hPa 0 mm - - -
1788681532 32.78° C 81% 1008.5 hPa 0 mm - - -
1788680932 32.78° C 79% 1008.7 hPa 0 mm - - -
1788680305 32.78° C 80% 1008.6 hPa 0 mm - - -
1788679706 32.78° C 79% 1008.7 hPa 0 mm - - -
1788679036 33.33° C 80% 1008.7 hPa 0 mm - - -
1788678436 32.78° C 81% 1008.7 hPa 0 mm - - -
1788677836 32.78° C 81% 1008.8 hPa 0 mm - - -
1788677236 32.78° C 80% 1008.9 hPa 0 mm - - -
1788675767 32.78° C 80% 1009.5 hPa 0 mm - - -
1788675166 32.78° C 80% 1009.9 hPa 0 mm - - -
1788673962 33.89° C 78% 1010.5 hPa 0 mm - - -
1788673362 33.89° C 78% 1010.7 hPa 0 mm - - -
1788672762 34.44° C 78% 1010.8 hPa 0 mm - - -
1788672004 34.44° C 78% 1011.1 hPa 0 mm - - -
1788671405 34.44° C 77% 1011 hPa 0 mm - - -
1788670698 33.89° C 77% 1011.3 hPa 0 mm - - -
1788669911 33.89° C 78% 1011.4 hPa 0 mm - - -
1788669340 33.89° C 76% 1011.6 hPa 0 mm - - -
1788667839 35° C 73% 1011.6 hPa 0 mm - - -
1788667175 35° C 73% 1011.7 hPa 0 mm - - -
1788666450 35° C 74% 1011.7 hPa 0 mm - - -
1788665298 34.44° C 76% 1012 hPa 0 mm - - -
1788663829 33.89° C 77% 1012.2 hPa 0 mm - - -
1788662933 33.89° C 76% 1012.3 hPa 0 mm - - -

* Rain latest hour (hover to see other rain measurements)
** Current wind speed in m/s (hover to see current wind gust speed)